Airfield :
LOGIN :

Register | Disclaimer

   EN    FR    IT 

 










Legend :    VFR   Marginal VFR   IFR   Intensive IFR   Very Intensive IFR
Visi :
Ceiling :
>= 8 km
>= 3000ft
5 to 8 km
1000 to 3000 ft
1500m to 5 km
500 to 1000 ft
800 to 1500m
200 to 500 ft
< 800m
< 200 ft
Symbols :   Thunderstorms  Fog  Heavy snow  Heavy precipitations  Wind > 20 kt
SIGMETs :     Misc.  Thunderstorms  Icing  Turbulence  Mountain Waves  Volcanic Ashes






- Airport Elevation : 364 ft
- IATA code : FRA


EDDF - Frankfurt Int.

CURRENT METAR :
  • 250920Z AUTO 05009KT 010V090 CAVOK 25/13 Q1015 NOSIG

EXPIRED METARs :
  • 250850Z AUTO 04007KT 360V110 CAVOK 25/13 Q1015 NOSIG
  • 250820Z AUTO 05008KT 010V110 CAVOK 24/14 Q1015 NOSIG
  • 250750Z AUTO 07007KT 030V100 CAVOK 23/13 Q1015 NOSIG
  • 250720Z AUTO 05008KT CAVOK 23/12 Q1016 NOSIG
  • 250650Z AUTO 02008KT CAVOK 22/13 Q1016 NOSIG
  • 250620Z AUTO 02009KT CAVOK 21/12 Q1016 NOSIG
  • 250550Z AUTO 02008KT CAVOK 20/12 Q1016 NOSIG
  • 250520Z AUTO 02012KT CAVOK 19/12 Q1016 NOSIG
  • 250450Z AUTO 02010KT CAVOK 19/12 Q1016 NOSIG

TAF TAF EDDF
Valid from the 25 at 06:00 until the 26 at 12:00 UTC


250500Z 2506/2612 04008KT CAVOK



MET'MAP, your aeronautical weather chart ! - Copyright ORBIFLY December 2007 - Disclaimer

ORBIFLY MET'MAP TEAM :

Programming & Development : Alexandra Zaïnal
Original concept : Baudouin d'Aumeries
Technical & hardware support : Manuel Goepfert
Assistance : Marc-Olivier Méhu




SOURCES & CREDITS :

   NOAA